Time;durP1;ratioP1;P1;durP2;ratioP2;P2;SDS_P1;SDS_P2;PMS_P1;PMS_P2;Temp;Humidity;BMP_temperature;BMP_pressure;BME280_temperature;BME280_humidity;BME280_pressure;Samples;Min_cycle;Max_cycle;Signal;HPM_P1;HPM_P2
2023/08/26 00:00:29;;;;;;;19.58;14.75;;;;;;;-143.21;64.17;71066.94;5037046;28;20211;-84
2023/08/26 00:02:56;;;;;;;23.50;15.32;;;;;;;-143.21;63.87;71070.91;5038657;28;20210;-84
2023/08/26 00:05:24;;;;;;;25.92;15.57;;;;;;;-143.21;64.01;71074.88;5031964;28;20206;-84
2023/08/26 00:07:51;;;;;;;32.67;16.70;;;;;;;-143.21;64.14;71082.81;5038216;28;20225;-85
2023/08/26 00:10:19;;;;;;;22.58;17.77;;;;;;;-143.21;64.29;71080.81;5033381;28;20207;-85
2023/08/26 00:12:46;;;;;;;28.75;17.85;;;;;;;-143.21;64.33;71078.84;5038383;28;20624;-83
2023/08/26 00:15:13;;;;;;;26.67;16.38;;;;;;;-143.21;64.28;71078.84;5043711;28;20217;-84
2023/08/26 00:17:40;;;;;;;23.45;16.60;;;;;;;-143.21;64.49;71082.81;5040215;28;20211;-84
2023/08/26 00:20:08;;;;;;;24.38;16.65;;;;;;;-143.21;64.80;71084.78;5041046;28;20211;-84
2023/08/26 00:22:35;;;;;;;27.13;16.60;;;;;;;-143.21;65.04;71092.72;5027977;28;20753;-83
2023/08/26 00:25:02;;;;;;;24.90;14.82;;;;;;;-143.21;64.95;71088.75;5045920;28;20264;-83
2023/08/26 00:27:30;;;;;;;23.00;14.27;;;;;;;-143.21;65.16;71096.69;5037654;28;20203;-84
2023/08/26 00:29:57;;;;;;;19.38;14.40;;;;;;;-143.21;65.29;71102.63;5040112;28;21011;-83
2023/08/26 00:32:24;;;;;;;19.30;13.27;;;;;;;-143.21;64.68;71092.72;5042958;28;20206;-84
2023/08/26 00:34:51;;;;;;;22.15;14.63;;;;;;;-143.21;65.10;71094.69;5035073;28;20226;-84
2023/08/26 00:37:18;;;;;;;24.55;15.00;;;;;;;-143.21;65.56;71090.72;5039478;28;20938;-81
2023/08/26 00:39:45;;;;;;;21.65;14.50;;;;;;;-143.21;65.25;71092.72;5039113;28;20209;-81
2023/08/26 00:42:11;;;;;;;20.15;14.68;;;;;;;-143.21;65.35;71098.66;5041185;28;20207;-81
2023/08/26 00:44:40;;;;;;;25.10;14.85;;;;;;;-143.21;65.56;71100.66;5036206;28;20213;-81
2023/08/26 00:47:07;;;;;;;25.52;16.23;;;;;;;-143.21;65.69;71098.66;5034799;28;20215;-80
2023/08/26 00:49:35;;;;;;;20.85;15.27;;;;;;;-143.21;65.46;71088.75;5039213;28;20604;-80
2023/08/26 00:52:02;;;;;;;21.63;14.82;;;;;;;-143.21;65.34;71092.72;5029926;28;20203;-80
2023/08/26 00:54:32;;;;;;;24.20;14.70;;;;;;;-143.21;65.22;71088.75;5033825;28;20913;-79
2023/08/26 00:56:59;;;;;;;22.38;14.75;;;;;;;-143.21;65.52;71098.66;5040037;28;20292;-80
2023/08/26 00:59:26;;;;;;;20.98;14.57;;;;;;;-143.21;65.54;71100.66;5037804;28;20612;-79
2023/08/26 01:01:55;;;;;;;22.80;15.13;;;;;;;-143.21;65.87;71114.53;5025118;28;20207;-80
2023/08/26 01:04:22;;;;;;;20.42;15.57;;;;;;;-143.21;66.17;71116.50;5031731;28;20252;-79
2023/08/26 01:06:49;;;;;;;21.27;15.27;;;;;;;-143.21;66.32;71118.50;5032123;28;20834;-80
2023/08/26 01:09:16;;;;;;;18.80;15.45;;;;;;;-143.21;66.14;71122.44;5033493;28;20210;-80
2023/08/26 01:11:54;;;;;;;20.90;15.57;;;;;;;-143.21;66.46;71128.41;5023057;28;20258;-81
2023/08/26 01:14:31;;;;;;;23.98;15.60;;;;;;;-143.21;66.92;71128.41;5031039;28;20341;-80
2023/08/26 01:17:01;;;;;;;21.83;14.75;;;;;;;-143.21;66.50;71130.38;5034906;28;20193;-80
2023/08/26 01:19:32;;;;;;;25.55;14.95;;;;;;;-143.21;66.90;71136.31;5040600;28;20681;-81
2023/08/26 01:22:02;;;;;;;21.15;15.48;;;;;;;-143.21;66.95;71138.31;5045814;28;20226;-82
2023/08/26 01:24:31;;;;;;;23.10;15.00;;;;;;;-143.21;66.90;71140.28;5045948;28;20242;-82
2023/08/26 01:26:58;;;;;;;24.17;14.80;;;;;;;-143.21;66.50;71124.44;5041374;28;20242;-81
2023/08/26 01:29:26;;;;;;;22.75;14.93;;;;;;;-143.21;66.47;71124.44;5036743;28;20285;-81
2023/08/26 01:31:59;;;;;;;19.55;14.45;;;;;;;-143.21;66.27;71120.47;5040923;28;20647;-82
2023/08/26 01:34:31;;;;;;;20.33;14.77;;;;;;;-143.21;66.36;71130.38;5044077;28;20218;-83
2023/08/26 01:37:00;;;;;;;19.33;13.80;;;;;;;-143.21;66.29;71132.38;5046689;28;20232;-83
2023/08/26 01:39:30;;;;;;;17.30;13.02;;;;;;;-143.21;65.72;71136.31;5041927;28;20649;-84
2023/08/26 01:41:59;;;;;;;22.55;13.32;;;;;;;-143.21;66.09;71142.28;5043522;28;20213;-84
2023/08/26 01:44:27;;;;;;;19.27;13.75;;;;;;;-143.21;66.27;71148.22;5046491;28;20210;-83
2023/08/26 01:46:55;;;;;;;18.98;13.02;;;;;;;-143.21;65.65;71146.25;5045302;28;20210;-83
2023/08/26 01:49:22;;;;;;;15.07;12.75;;;;;;;-143.21;66.04;71160.13;5042002;28;20207;-83
2023/08/26 01:51:49;;;;;;;21.00;13.52;;;;;;;-143.21;66.06;71162.09;5048891;28;20198;-83
2023/08/26 01:54:16;;;;;;;18.48;13.05;;;;;;;-143.21;66.46;71164.09;5043305;28;20226;-82
2023/08/26 01:56:44;;;;;;;15.95;12.90;;;;;;;-143.21;66.43;71174.00;5047424;28;20214;-82
2023/08/26 01:59:11;;;;;;;16.67;12.73;;;;;;;-143.21;66.64;71179.94;5044241;28;20563;-82
2023/08/26 02:01:38;;;;;;;20.63;13.38;;;;;;;-143.21;66.88;71189.84;5036156;28;20210;-81
2023/08/26 02:04:05;;;;;;;16.10;12.98;;;;;;;-143.21;66.90;71191.84;5047522;28;20206;-81
2023/08/26 02:06:32;;;;;;;19.52;12.80;;;;;;;-143.21;67.04;71199.78;5041444;28;20305;-81
2023/08/26 02:08:59;;;;;;;17.50;13.50;;;;;;;-143.21;67.37;71215.63;5041889;28;20210;-82
2023/08/26 02:11:26;;;;;;;21.27;13.80;;;;;;;-143.21;68.31;71237.44;5037972;28;20678;-82
2023/08/26 02:13:54;;;;;;;18.75;14.25;;;;;;;-143.21;68.53;71241.41;5046391;28;20731;-83
2023/08/26 02:16:21;;;;;;;18.80;14.20;;;;;;;-143.21;68.94;71235.44;5037150;28;20901;-82
2023/08/26 02:18:48;;;;;;;21.13;13.88;;;;;;;-143.21;69.15;71235.44;5035620;28;20265;-82
2023/08/26 02:21:15;;;;;;;19.08;12.95;;;;;;;-143.21;69.03;71233.47;5027850;28;20652;-83
2023/08/26 02:23:42;;;;;;;18.80;14.13;;;;;;;-143.21;68.92;71229.50;5028270;28;20294;-84
2023/08/26 02:26:09;;;;;;;16.15;13.30;;;;;;;-143.21;68.66;71217.59;5027431;28;20224;-84
2023/08/26 02:28:36;;;;;;;18.77;14.10;;;;;;;-143.21;68.81;71213.66;5027030;28;20214;-83
2023/08/26 02:31:04;;;;;;;19.17;14.38;;;;;;;-143.21;68.63;71215.63;5028327;28;20669;-83
2023/08/26 02:33:31;;;;;;;21.35;13.77;;;;;;;-143.21;68.97;71219.59;5028158;28;20206;-82
2023/08/26 02:35:58;;;;;;;17.60;14.25;;;;;;;-143.21;68.98;71227.53;5026406;28;20203;-83
2023/08/26 02:38:25;;;;;;;19.75;13.60;;;;;;;-143.21;69.20;71227.53;5022858;28;20799;-81
2023/08/26 02:40:53;;;;;;;16.85;14.02;;;;;;;-143.21;69.16;71229.50;5027063;28;20649;-81
2023/08/26 02:43:20;;;;;;;20.67;14.05;;;;;;;-143.21;68.95;71221.56;5028176;28;20230;-80
2023/08/26 02:45:51;;;;;;;19.55;14.10;;;;;;;-143.21;68.74;71209.69;5024810;28;20657;-82
2023/08/26 02:48:20;;;;;;;23.25;14.63;;;;;;;-143.21;68.48;71207.69;5027241;28;20206;-81
2023/08/26 02:50:47;;;;;;;19.52;14.57;;;;;;;-143.21;68.93;71209.69;5010269;28;20217;-81
2023/08/26 02:53:14;;;;;;;20.13;13.98;;;;;;;-143.21;69.13;71225.53;5027592;28;20206;-82
2023/08/26 02:55:41;;;;;;;20.13;13.77;;;;;;;-143.21;69.50;71235.44;5028468;28;20237;-81
2023/08/26 02:58:08;;;;;;;20.58;13.85;;;;;;;-143.21;69.69;71239.41;5027249;28;20213;-81
2023/08/26 03:00:35;;;;;;;21.23;13.82;;;;;;;-143.21;69.93;71247.34;5026153;28;20210;-80
2023/08/26 03:03:02;;;;;;;20.48;15.13;;;;;;;-143.21;70.03;71247.34;5027441;28;20220;-81
2023/08/26 03:05:30;;;;;;;24.38;14.63;;;;;;;-143.21;69.71;71247.34;5027597;28;20648;-82
2023/08/26 03:07:57;;;;;;;21.17;14.73;;;;;;;-143.21;69.88;71251.31;5027154;28;21071;-81
2023/08/26 03:10:23;;;;;;;16.88;14.13;;;;;;;-143.21;70.11;71253.28;5025458;28;20596;-81
2023/08/26 03:12:50;;;;;;;25.10;15.20;;;;;;;-143.21;70.20;71261.22;5027570;28;20218;-81
2023/08/26 03:15:17;;;;;;;22.48;14.43;;;;;;;-143.21;70.00;71259.25;5031768;28;20233;-82
2023/08/26 03:17:45;;;;;;;27.35;14.98;;;;;;;-143.21;69.94;71261.22;5034716;28;20207;-82
2023/08/26 03:20:13;;;;;;;25.05;15.30;;;;;;;-143.21;70.07;71265.19;5030636;28;20641;-81
2023/08/26 03:22:41;;;;;;;22.13;15.43;;;;;;;-143.21;70.06;71263.22;5030679;28;20298;-81
2023/08/26 03:25:08;;;;;;;22.90;16.25;;;;;;;-143.21;69.83;71253.28;5031561;28;20214;-81
2023/08/26 03:27:35;;;;;;;19.42;16.08;;;;;;;-143.21;69.88;71259.25;5032089;28;20202;-81
2023/08/26 03:30:02;;;;;;;22.67;15.90;;;;;;;-143.21;70.07;71273.13;5031403;28;20210;-81
2023/08/26 03:32:29;;;;;;;21.13;15.30;;;;;;;-143.21;70.51;71283.03;5030484;28;20210;-82
2023/08/26 03:34:56;;;;;;;23.15;14.75;;;;;;;-143.21;70.31;71285.03;5029843;28;20234;-81
2023/08/26 03:37:22;;;;;;;23.25;15.35;;;;;;;-143.21;70.42;71294.94;5031308;28;20236;-80
2023/08/26 03:39:51;;;;;;;22.02;14.65;;;;;;;-143.21;70.29;71292.94;5030381;28;20206;-80
2023/08/26 03:42:17;;;;;;;22.95;14.63;;;;;;;-143.21;70.34;71306.81;5029281;28;20700;-82
2023/08/26 03:44:44;;;;;;;18.80;14.13;;;;;;;-143.21;70.68;71308.81;5032389;28;20211;-82
2023/08/26 03:47:11;;;;;;;19.90;14.43;;;;;;;-143.21;70.69;71322.69;5030505;28;20582;-83
2023/08/26 03:49:38;;;;;;;18.17;14.23;;;;;;;-143.21;71.01;71330.63;5029919;28;20199;-83
2023/08/26 03:52:05;;;;;;;19.38;14.35;;;;;;;-143.21;71.25;71330.63;5031121;28;20195;-82
2023/08/26 03:54:32;;;;;;;21.48;14.63;;;;;;;-143.21;71.25;71332.59;5030365;28;20222;-82
2023/08/26 03:57:00;;;;;;;20.98;14.48;;;;;;;-143.21;71.44;71330.63;5030759;28;20199;-84
2023/08/26 03:59:27;;;;;;;17.88;14.27;;;;;;;-143.21;71.32;71324.66;5030440;28;20265;-83
2023/08/26 04:01:54;;;;;;;26.48;15.20;;;;;;;-143.21;70.90;71314.75;5030038;28;20252;-83
2023/08/26 04:04:21;;;;;;;22.48;14.23;;;;;;;-143.21;70.39;71308.81;5027633;28;20210;-83
2023/08/26 04:06:47;;;;;;;17.92;14.60;;;;;;;-143.21;70.51;71312.78;5029863;28;20222;-83
2023/08/26 04:09:14;;;;;;;24.00;15.38;;;;;;;-143.21;70.97;71318.72;5030917;28;20211;-84
2023/08/26 04:11:42;;;;;;;23.92;15.55;;;;;;;-143.21;71.19;71324.66;5028098;28;20264;-83
2023/08/26 04:14:10;;;;;;;22.52;14.65;;;;;;;-143.21;71.20;71328.63;5030992;28;20230;-83
2023/08/26 04:16:37;;;;;;;22.30;15.38;;;;;;;-143.21;71.29;71326.66;5029491;28;20255;-84
2023/08/26 04:19:04;;;;;;;24.33;15.25;;;;;;;-143.21;70.55;71320.69;5031036;28;20234;-83
2023/08/26 04:21:32;;;;;;;28.95;15.45;;;;;;;-143.21;70.72;71320.69;5030062;28;20213;-84
2023/08/26 04:23:59;;;;;;;34.15;18.35;;;;;;;-143.21;70.55;71316.75;5029988;28;20203;-83
2023/08/26 04:26:26;;;;;;;42.70;21.55;;;;;;;-143.21;70.52;71318.72;5029247;28;20207;-85
2023/08/26 04:28:52;;;;;;;34.45;19.40;;;;;;;-143.21;70.60;71320.69;5030038;28;20206;-81
2023/08/26 04:31:21;;;;;;;24.25;17.58;;;;;;;-143.21;70.60;71322.69;5029431;28;20273;-80
2023/08/26 04:33:47;;;;;;;36.13;16.67;;;;;;;-143.21;70.68;71318.72;5025144;28;20203;-84
2023/08/26 04:36:14;;;;;;;21.98;15.93;;;;;;;-143.21;70.49;71316.75;5028807;28;20222;-82
2023/08/26 04:38:41;;;;;;;20.70;14.90;;;;;;;-143.21;70.42;71304.84;5031361;28;20223;-84
2023/08/26 04:41:09;;;;;;;23.05;15.95;;;;;;;-143.21;70.14;71300.88;5029668;28;20217;-85
2023/08/26 04:43:36;;;;;;;23.15;15.35;;;;;;;-143.21;70.29;71302.84;5029697;28;20222;-85
2023/08/26 04:46:03;;;;;;;24.13;15.75;;;;;;;-143.21;70.44;71314.75;5027995;28;20206;-83
2023/08/26 04:48:31;;;;;;;24.48;16.77;;;;;;;-143.21;70.50;71316.75;5026787;28;20207;-84
2023/08/26 04:50:58;;;;;;;21.13;15.50;;;;;;;-143.21;71.01;71320.69;5028808;28;20226;-85
2023/08/26 04:53:26;;;;;;;26.95;15.90;;;;;;;-143.21;71.25;71320.69;5028034;28;20202;-82
2023/08/26 04:55:53;;;;;;;21.88;15.38;;;;;;;-143.21;71.26;71316.75;5028615;28;20221;-82
2023/08/26 04:58:19;;;;;;;23.60;15.90;;;;;;;-143.21;70.90;71314.75;5027411;28;20206;-82
2023/08/26 05:00:47;;;;;;;22.83;15.70;;;;;;;-143.21;70.88;71304.84;5028389;28;20207;-82
2023/08/26 05:03:14;;;;;;;19.73;15.77;;;;;;;-143.21;70.69;71290.97;5029553;28;20645;-84
2023/08/26 05:05:42;;;;;;;21.25;15.75;;;;;;;-143.21;70.40;71288.97;5027857;28;20285;-84
2023/08/26 05:08:09;;;;;;;20.02;15.20;;;;;;;-143.21;70.57;71285.03;5028283;28;21059;-84
2023/08/26 05:10:36;;;;;;;21.73;15.40;;;;;;;-143.21;70.26;71277.09;5027788;28;20626;-84
2023/08/26 05:13:04;;;;;;;18.80;15.23;;;;;;;-143.21;70.02;71281.06;5029785;28;20211;-82
2023/08/26 05:15:31;;;;;;;22.00;15.18;;;;;;;-143.21;69.97;71267.19;5030806;28;20219;-85
2023/08/26 05:17:58;;;;;;;22.88;15.50;;;;;;;-143.21;69.63;71261.22;5028868;28;20213;-85
2023/08/26 05:20:25;;;;;;;23.38;16.13;;;;;;;-143.21;69.43;71257.25;5040215;28;20210;-85
2023/08/26 05:22:53;;;;;;;23.88;16.05;;;;;;;-143.21;69.40;71257.25;5043208;28;20213;-85
2023/08/26 05:25:20;;;;;;;21.02;15.82;;;;;;;-143.21;69.79;71255.28;5037432;28;20230;-85
2023/08/26 05:27:46;;;;;;;25.00;16.05;;;;;;;-143.21;69.97;71259.25;5040652;28;20209;-83
2023/08/26 05:30:14;;;;;;;21.95;15.60;;;;;;;-143.21;69.84;71251.31;5042444;28;20209;-84
2023/08/26 05:32:40;;;;;;;24.23;15.75;;;;;;;-143.21;69.70;71261.22;5046080;28;21475;-84
2023/08/26 05:35:08;;;;;;;24.88;16.15;;;;;;;-143.21;69.86;71257.25;5041631;28;20980;-83
2023/08/26 05:37:35;;;;;;;25.00;16.25;;;;;;;-143.21;69.72;71261.22;5044113;28;20202;-83
2023/08/26 05:40:03;;;;;;;20.88;16.23;;;;;;;-143.21;69.37;71253.28;5046285;28;20206;-80
2023/08/26 05:42:30;;;;;;;27.08;16.52;;;;;;;-143.21;69.40;71249.34;5041080;28;20205;-80
2023/08/26 05:44:57;;;;;;;20.80;16.63;;;;;;;-143.21;69.50;71257.25;5044052;28;20710;-80
2023/08/26 05:47:24;;;;;;;23.73;17.17;;;;;;;-143.21;69.63;71257.25;5038548;28;20203;-80
2023/08/26 05:49:50;;;;;;;21.55;16.10;;;;;;;-143.21;69.79;71255.28;5041140;28;20201;-80
2023/08/26 05:52:17;;;;;;;24.85;16.25;;;;;;;-143.21;69.61;71257.25;5037116;28;20210;-79
2023/08/26 05:54:44;;;;;;;24.13;16.67;;;;;;;-143.21;69.42;71257.25;5042409;28;20850;-78
2023/08/26 05:57:13;;;;;;;23.13;16.58;;;;;;;-143.21;69.49;71249.34;5044522;28;20217;-79
2023/08/26 05:59:40;;;;;;;22.02;17.15;;;;;;;-143.21;69.39;71251.31;5038119;28;20213;-81
2023/08/26 06:02:06;;;;;;;22.75;16.17;;;;;;;-143.21;69.47;71245.38;5044593;28;20210;-79
2023/08/26 06:04:33;;;;;;;21.00;16.13;;;;;;;-143.21;69.22;71241.41;5039798;28;20197;-80
2023/08/26 06:07:00;;;;;;;30.55;16.08;;;;;;;-143.21;68.97;71231.50;5042540;28;20202;-79
2023/08/26 06:09:27;;;;;;;23.02;16.48;;;;;;;-143.21;68.00;71187.88;5042559;28;20194;-79
2023/08/26 06:11:54;;;;;;;23.38;17.48;;;;;;;-143.21;66.77;71162.09;5044401;28;20217;-76
2023/08/26 06:14:23;;;;;;;29.48;17.25;;;;;;;-143.21;66.43;71160.13;5043926;28;20234;-79
2023/08/26 06:16:50;;;;;;;24.67;18.42;;;;;;;-143.21;66.64;71158.13;5043688;28;20230;-79
2023/08/26 06:19:17;;;;;;;27.67;17.10;;;;;;;-143.21;66.43;71158.13;5034162;28;20760;-78
2023/08/26 06:21:44;;;;;;;25.27;16.95;;;;;;;-143.21;66.72;71164.09;5024082;28;20203;-79
2023/08/26 06:24:11;;;;;;;22.65;17.30;;;;;;;-143.21;66.63;71164.09;5028519;28;20213;-80
2023/08/26 06:26:40;;;;;;;25.45;16.42;;;;;;;-143.21;66.44;71156.16;5026567;28;20682;-78
2023/08/26 06:29:06;;;;;;;25.63;16.98;;;;;;;-143.21;65.50;71128.41;5024099;28;20252;-79
2023/08/26 06:31:35;;;;;;;22.45;16.40;;;;;;;-143.21;64.95;71122.44;5028338;28;20195;-79
2023/08/26 06:34:02;;;;;;;24.58;16.52;;;;;;;-143.21;65.17;71126.41;5023276;28;20302;-78
2023/08/26 06:36:29;;;;;;;24.60;16.63;;;;;;;-143.21;65.33;71134.34;5025014;28;20237;-79
2023/08/26 06:38:56;;;;;;;25.58;15.65;;;;;;;-143.21;64.92;71138.31;5024781;28;20670;-80
2023/08/26 06:41:23;;;;;;;25.05;15.88;;;;;;;-143.21;64.85;71132.38;5029229;28;20616;-78
2023/08/26 06:43:50;;;;;;;19.63;15.48;;;;;;;-143.21;64.97;71140.28;5027920;28;20206;-78
2023/08/26 06:46:16;;;;;;;22.95;16.13;;;;;;;-143.21;64.40;71118.50;5024504;28;20209;-78
2023/08/26 06:48:45;;;;;;;19.88;15.32;;;;;;;-143.21;63.17;71088.75;5023271;28;20203;-78
2023/08/26 06:51:12;;;;;;;24.13;15.25;;;;;;;-143.21;62.42;71066.94;5021085;28;20870;-79
2023/08/26 06:53:39;;;;;;;24.77;15.52;;;;;;;-143.21;62.15;71064.97;5027246;28;20194;-78
2023/08/26 06:56:06;;;;;;;23.55;15.30;;;;;;;-143.21;61.72;71055.06;5027555;28;20221;-84
2023/08/26 06:58:33;;;;;;;27.63;14.55;;;;;;;-143.21;61.66;71057.03;5026556;28;20256;-85
2023/08/26 07:01:00;;;;;;;24.60;14.57;;;;;;;-143.21;61.89;71053.06;5025988;28;20203;-84
2023/08/26 07:03:27;;;;;;;18.15;14.43;;;;;;;-143.21;61.60;71039.19;5024920;28;20203;-85
2023/08/26 07:05:55;;;;;;;21.35;14.70;;;;;;;-143.21;60.88;71015.41;5027313;28;20194;-85
2023/08/26 07:08:22;;;;;;;19.25;13.85;;;;;;;-143.21;60.34;70979.72;5023591;28;20206;-86
2023/08/26 07:10:49;;;;;;;21.33;14.02;;;;;;;-143.21;59.64;70969.81;5030787;28;20584;-86
2023/08/26 07:13:16;;;;;;;23.55;13.95;;;;;;;-143.21;58.57;70957.91;5025095;28;20747;-86
2023/08/26 07:15:42;;;;;;;18.27;12.95;;;;;;;-143.21;57.95;70951.97;5013698;28;20227;-86
2023/08/26 07:18:09;;;;;;;19.25;12.93;;;;;;;-143.21;57.76;70946.03;5027250;28;20214;-85
2023/08/26 07:20:36;;;;;;;23.25;13.40;;;;;;;-143.21;57.35;70936.09;5039430;28;20711;-85
2023/08/26 07:23:05;;;;;;;18.60;12.32;;;;;;;-143.21;57.19;70930.16;5043222;28;20210;-81
2023/08/26 07:25:33;;;;;;;20.10;12.32;;;;;;;-143.21;57.34;70920.25;5039740;28;20203;-82
2023/08/26 07:28:00;;;;;;;26.23;13.40;;;;;;;-143.21;57.41;70916.28;5039890;28;20198;-86
2023/08/26 07:30:27;;;;;;;23.85;12.57;;;;;;;-143.21;56.63;70902.41;5036817;28;20234;-87
2023/08/26 07:32:54;;;;;;;19.27;11.80;;;;;;;-143.21;56.00;70892.50;5043070;28;20209;-86
2023/08/26 07:35:21;;;;;;;18.77;12.50;;;;;;;-143.21;55.98;70878.63;5043461;28;20302;-87
2023/08/26 07:37:48;;;;;;;17.60;12.35;;;;;;;-143.21;55.58;70868.72;5041811;28;20241;-86
2023/08/26 07:40:17;;;;;;;19.88;12.50;;;;;;;-143.21;55.39;70860.78;5044734;28;20210;-83
2023/08/26 07:42:44;;;;;;;21.75;12.48;;;;;;;-143.21;54.43;70846.91;5039948;28;20217;-81
2023/08/26 07:45:11;;;;;;;20.30;11.18;;;;;;;-143.21;53.98;70837.00;5046215;28;20703;-82
2023/08/26 07:47:40;;;;;;;18.33;12.50;;;;;;;-143.21;53.73;70813.19;5046037;28;20225;-82
2023/08/26 07:50:08;;;;;;;17.35;12.00;;;;;;;-143.21;52.81;70801.31;5044232;28;20206;-81
2023/08/26 07:52:35;;;;;;;19.63;8.70;;;;;;;-143.21;50.79;70803.28;5034928;28;20209;-81
2023/08/26 07:55:02;;;;;;;16.92;10.80;;;;;;;-143.21;52.76;70801.31;5044263;28;20202;-81
2023/08/26 07:57:30;;;;;;;22.00;11.90;;;;;;;-143.21;52.46;70781.50;5039728;28;20230;-85
2023/08/26 07:59:56;;;;;;;17.15;11.40;;;;;;;-143.21;52.51;70761.66;5045163;28;20198;-80
2023/08/26 08:02:23;;;;;;;30.02;12.35;;;;;;;-143.21;52.62;70761.66;5046157;28;20214;-81
2023/08/26 08:04:50;;;;;;;15.82;10.02;;;;;;;-143.21;50.90;70755.72;5043006;28;20319;-81
2023/08/26 08:07:17;;;;;;;18.25;10.52;;;;;;;-143.21;50.89;70751.75;5041206;28;20202;-78
2023/08/26 08:09:44;;;;;;;16.60;10.95;;;;;;;-143.21;51.54;70739.84;5047162;28;20213;-79
2023/08/26 08:12:12;;;;;;;16.38;11.00;;;;;;;-143.21;50.34;70727.97;5041500;28;20699;-79
2023/08/26 08:14:42;;;;;;;15.25;10.68;;;;;;;-143.21;51.26;70718.06;5045638;28;20242;-78
2023/08/26 08:17:09;;;;;;;15.38;11.02;;;;;;;-143.21;51.03;70716.06;5044477;28;20240;-78
2023/08/26 08:19:38;;;;;;;16.30;10.30;;;;;;;-143.21;49.63;70712.09;5034682;28;20713;-79
2023/08/26 08:22:05;;;;;;;13.18;10.50;;;;;;;-143.21;50.88;70708.16;5033786;28;20657;-79
2023/08/26 08:24:32;;;;;;;13.75;10.23;;;;;;;-143.21;50.16;70684.34;5031038;28;20206;-79
2023/08/26 08:26:58;;;;;;;14.73;10.57;;;;;;;-143.21;49.68;70670.47;5033404;28;20665;-78
2023/08/26 08:29:25;;;;;;;19.95;9.90;;;;;;;-143.21;48.70;70664.53;5032883;28;20913;-81
2023/08/26 08:32:03;;;;;;;18.52;10.70;;;;;;;-143.21;49.36;70662.56;5034924;28;20712;-82
2023/08/26 08:34:31;;;;;;;15.93;11.02;;;;;;;-143.21;49.00;70644.72;5028569;28;20669;-82
2023/08/26 08:37:01;;;;;;;17.67;10.35;;;;;;;-143.21;49.11;70628.84;5034781;28;20607;-82
2023/08/26 08:39:28;;;;;;;17.77;10.55;;;;;;;-143.21;48.22;70626.88;5034016;28;20205;-80
2023/08/26 08:41:56;;;;;;;14.57;10.20;;;;;;;-143.21;48.16;70618.94;5037703;28;20202;-80
2023/08/26 08:44:26;;;;;;;16.73;9.93;;;;;;;-143.21;47.43;70603.09;5027849;28;20293;-80
2023/08/26 08:46:53;;;;;;;14.02;9.68;;;;;;;-143.21;46.97;70585.25;5036861;28;20259;-80
2023/08/26 08:49:21;;;;;;;12.60;9.43;;;;;;;-143.21;46.76;70571.38;5035830;28;20680;-80
2023/08/26 08:51:50;;;;;;;13.82;10.02;;;;;;;-143.21;46.47;70565.44;5031272;28;20202;-80
2023/08/26 08:54:17;;;;;;;14.10;9.60;;;;;;;-143.21;45.14;70547.59;5032157;28;20202;-80
2023/08/26 08:56:44;;;;;;;11.38;9.02;;;;;;;-143.21;45.21;70549.56;5037674;28;20248;-80
2023/08/26 08:59:12;;;;;;;12.48;9.98;;;;;;;-143.21;45.24;70529.75;5029859;28;20253;-80
2023/08/26 09:01:40;;;;;;;11.90;9.95;;;;;;;-143.21;45.17;70500.00;5032297;28;20298;-80
2023/08/26 09:04:09;;;;;;;13.65;10.15;;;;;;;-143.21;44.17;70482.19;5031009;28;20659;-82
2023/08/26 09:06:38;;;;;;;11.18;9.77;;;;;;;-143.21;44.27;70472.25;5028481;28;20203;-81
2023/08/26 09:09:10;;;;;;;15.23;9.90;;;;;;;-143.21;43.58;70466.31;5032148;28;20238;-82
2023/08/26 09:11:38;;;;;;;15.50;9.80;;;;;;;-143.21;44.53;70438.56;5033231;28;20219;-81
2023/08/26 09:14:05;;;;;;;14.40;9.95;;;;;;;-143.21;43.93;70408.84;5029417;28;20210;-81
2023/08/26 09:16:35;;;;;;;14.57;9.10;;;;;;;-143.21;42.84;70392.97;5030665;28;20243;-81
2023/08/26 09:19:03;;;;;;;15.57;9.93;;;;;;;-143.21;43.08;70379.09;5032627;28;20235;-81
2023/08/26 09:21:30;;;;;;;12.48;10.13;;;;;;;-143.21;43.00;70363.25;5030353;28;20300;-81
2023/08/26 09:24:00;;;;;;;10.63;9.52;;;;;;;-143.21;41.96;70349.38;5037276;28;20253;-81
2023/08/26 09:26:28;;;;;;;12.82;10.10;;;;;;;-143.21;41.72;70343.44;5031368;28;20211;-82
2023/08/26 09:28:57;;;;;;;15.80;9.85;;;;;;;-143.21;41.64;70321.63;5031059;28;20203;-82
2023/08/26 09:31:24;;;;;;;13.40;10.32;;;;;;;-143.21;41.88;70305.78;5030012;28;20285;-82
2023/08/26 09:34:00;;;;;;;13.48;10.43;;;;;;;-143.21;41.76;70295.88;5031603;28;20195;-82
2023/08/26 09:36:39;;;;;;;13.48;10.30;;;;;;;-143.21;40.45;70268.13;5032899;28;20300;-83
2023/08/26 09:39:13;;;;;;;14.30;10.70;;;;;;;-143.21;40.39;70272.09;5040151;28;20197;-82
2023/08/26 09:41:40;;;;;;;11.20;9.75;;;;;;;-143.21;40.70;70262.19;5038562;28;20214;-82
2023/08/26 09:44:10;;;;;;;13.57;10.20;;;;;;;-143.21;40.41;70258.22;5026852;28;20226;-82
2023/08/26 09:46:40;;;;;;;13.90;9.85;;;;;;;-143.21;40.49;70242.34;5039202;28;20211;-82
2023/08/26 09:49:07;;;;;;;13.23;9.52;;;;;;;-143.21;39.80;70212.63;5038381;28;20305;-82
2023/08/26 09:51:34;;;;;;;11.48;9.85;;;;;;;-143.21;39.63;70192.81;5029868;28;20427;-81
2023/08/26 09:54:01;;;;;;;12.90;9.35;;;;;;;-143.21;39.21;70172.97;5024525;28;20217;-81
2023/08/26 09:56:29;;;;;;;13.75;9.85;;;;;;;-143.21;38.74;70151.19;5030809;28;20237;-81
2023/08/26 09:58:57;;;;;;;11.70;9.93;;;;;;;-143.21;38.11;70139.28;5030222;28;20210;-81
2023/08/26 10:01:25;;;;;;;10.75;9.23;;;;;;;-143.21;38.17;70141.28;5037086;28;20209;-81
2023/08/26 10:04:03;;;;;;;11.07;9.77;;;;;;;-143.21;37.94;70131.38;5023529;28;20207;-81
2023/08/26 10:06:32;;;;;;;10.27;9.18;;;;;;;-143.21;38.12;70101.63;5006711;28;20276;-81
2023/08/26 10:09:07;;;;;;;11.98;9.52;;;;;;;-143.21;37.86;70077.84;5000714;28;20222;-82
2023/08/26 10:11:39;;;;;;;11.88;9.63;;;;;;;-143.21;37.58;70046.16;5012275;28;20201;-82
2023/08/26 10:14:10;;;;;;;10.35;9.25;;;;;;;-143.21;36.58;70018.41;5032351;28;20289;-82
2023/08/26 10:16:38;;;;;;;10.23;8.35;;;;;;;-143.21;36.31;69996.59;5032319;28;20232;-82
2023/08/26 10:19:05;;;;;;;11.23;8.65;;;;;;;-143.21;35.74;69970.84;5033338;28;20241;-81
2023/08/26 10:21:33;;;;;;;12.68;8.88;;;;;;;-143.21;36.28;69962.91;5042073;28;20198;-81
2023/08/26 10:24:01;;;;;;;9.48;7.93;;;;;;;-143.21;34.58;69947.06;5046794;28;20217;-82
2023/08/26 10:26:29;;;;;;;9.55;8.45;;;;;;;-143.21;34.79;69933.19;5044221;28;20278;-81
2023/08/26 10:28:57;;;;;;;12.02;8.80;;;;;;;-143.21;34.44;69913.38;5046400;28;20214;-81
2023/08/26 10:31:33;;;;;;;9.52;8.07;;;;;;;-143.21;34.00;69901.47;5039367;28;20202;-81
2023/08/26 10:34:02;;;;;;;9.65;8.07;;;;;;;-143.21;32.98;69883.63;5041534;28;20258;-82
2023/08/26 10:36:34;;;;;;;10.48;7.57;;;;;;;-143.21;32.06;69903.47;5043635;28;20235;-82
2023/08/26 10:39:02;;;;;;;18.67;8.57;;;;;;;-143.21;32.43;69921.28;5045628;28;20202;-82
2023/08/26 10:41:29;;;;;;;12.57;8.30;;;;;;;-143.21;33.41;69909.41;5045514;28;20201;-82
2023/08/26 10:44:01;;;;;;;12.65;8.23;;;;;;;-143.21;32.82;69879.69;5040849;28;20605;-82
2023/08/26 10:46:33;;;;;;;10.13;8.00;;;;;;;-143.21;33.12;69844.00;5042410;28;20256;-82
2023/08/26 10:49:00;;;;;;;10.90;8.30;;;;;;;-143.21;32.95;69810.31;5039042;28;20222;-82
2023/08/26 10:51:27;;;;;;;12.57;8.43;;;;;;;-143.21;32.49;69780.59;5049818;28;20224;-82
2023/08/26 10:54:01;;;;;;;12.48;8.18;;;;;;;-143.21;31.99;69766.72;5038028;28;20680;-82
2023/08/26 10:56:28;;;;;;;12.45;8.43;;;;;;;-143.21;32.35;69758.78;5044510;28;20201;-81
2023/08/26 10:59:03;;;;;;;12.35;8.68;;;;;;;-143.21;31.83;69758.78;5043107;28;20202;-82
2023/08/26 11:01:33;;;;;;;12.07;8.80;;;;;;;-143.21;32.30;69760.78;5044327;28;20204;-83
2023/08/26 11:04:00;;;;;;;14.82;8.40;;;;;;;-143.21;32.28;69752.84;5043598;28;20607;-82